Time;durP1;ratioP1;P1;durP2;ratioP2;P2;SDS_P1;SDS_P2;PMS_P1;PMS_P2;Temp;Humidity;BMP_temperature;BMP_pressure;BME280_temperature;BME280_humidity;BME280_pressure;Samples;Min_cycle;Max_cycle;Signal;HPM_P1;HPM_P2
2021/12/05 00:22:10;;;;;;;20.50;14.07;;;;;;;4.26;74.83;94276.09;5012318;28;20225;-62
2021/12/05 00:24:38;;;;;;;19.17;15.53;;;;;;;4.14;75.41;94271.91;4992635;28;20230;-64
2021/12/05 00:27:14;;;;;;;19.90;15.33;;;;;;;4.15;75.32;94271.78;5036424;28;20218;-64
2021/12/05 00:30:02;;;;;;;19.93;14.50;;;;;;;4.03;75.78;94267.63;5034062;28;20229;-62
2021/12/05 01:04:29;;;;;;;21.47;15.80;;;;;;;3.43;76.29;94244.06;5048196;28;20286;-66
2021/12/05 01:15:28;;;;;;;25.00;17.83;;;;;;;3.60;76.01;94241.84;5004542;28;20242;-64
2021/12/05 01:20:24;;;;;;;29.67;20.80;;;;;;;3.54;75.95;94228.38;5017255;28;20234;-65
2021/12/05 01:23:11;;;;;;;30.10;21.13;;;;;;;3.46;76.02;94225.59;5005538;28;20230;-66
2021/12/05 01:26:00;;;;;;;34.67;24.33;;;;;;;3.46;76.50;94238.59;5006439;28;20231;-67
2021/12/05 01:31:15;;;;;;;31.80;23.97;;;;;;;3.33;76.65;94221.56;5008672;28;20258;-62
2021/12/05 02:11:09;;;;;;;29.60;21.63;;;;;;;3.22;77.30;94217.25;5036387;28;20234;-62
2021/12/05 02:16:38;;;;;;;32.80;25.13;;;;;;;3.60;76.54;94219.25;5046672;28;20309;-63
2021/12/05 02:40:30;;;;;;;37.10;28.10;;;;;;;3.67;77.19;94228.19;5002414;28;20222;-62
2021/12/05 02:43:09;;;;;;;39.33;28.63;;;;;;;3.68;77.71;94234.22;5002413;28;20336;-67
2021/12/05 02:45:47;;;;;;;40.33;28.07;;;;;;;3.70;77.88;94225.31;4984597;28;20239;-65
2021/12/05 02:48:15;;;;;;;38.20;27.70;;;;;;;3.79;77.90;94228.91;4984749;28;20258;-62
2021/12/05 02:50:41;;;;;;;40.23;27.93;;;;;;;3.89;77.12;94224.59;4987973;28;20227;-64
2021/12/05 02:53:19;;;;;;;36.23;27.27;;;;;;;3.83;77.28;94226.91;5003169;28;20232;-63
2021/12/05 02:55:47;;;;;;;38.10;27.87;;;;;;;3.79;77.05;94220.31;5002305;28;20223;-64
2021/12/05 02:58:34;;;;;;;36.20;27.53;;;;;;;3.75;77.61;94210.16;4986075;28;20227;-63
2021/12/05 03:01:25;;;;;;;40.20;27.67;;;;;;;3.73;77.79;94211.25;4976454;28;20223;-62
2021/12/05 03:03:52;;;;;;;34.83;26.47;;;;;;;3.87;76.95;94208.28;5002462;28;20277;-64
2021/12/05 03:06:23;;;;;;;38.13;26.73;;;;;;;3.86;76.73;94211.84;5003194;28;20246;-62
2021/12/05 03:08:54;;;;;;;37.20;27.83;;;;;;;3.87;77.11;94215.28;4983918;28;20231;-62
2021/12/05 03:11:20;;;;;;;35.60;26.30;;;;;;;3.85;76.72;94214.56;5004820;28;20235;-64
2021/12/05 03:13:46;;;;;;;36.53;26.97;;;;;;;3.86;77.03;94217.06;5039970;28;20214;-63
2021/12/05 03:16:16;;;;;;;37.93;26.67;;;;;;;3.95;76.88;94226.66;5038837;28;20244;-64
2021/12/05 03:18:42;;;;;;;37.40;26.67;;;;;;;3.96;76.88;94214.50;5045089;28;20327;-64
2021/12/05 03:21:09;;;;;;;37.43;27.57;;;;;;;3.93;77.20;94218.19;5041614;28;20218;-64
2021/12/05 03:23:37;;;;;;;40.50;27.37;;;;;;;4.02;76.95;94215.75;5043632;28;20221;-64
2021/12/05 03:26:08;;;;;;;35.27;25.57;;;;;;;4.06;76.84;94212.72;5036164;28;20210;-64
2021/12/05 03:28:35;;;;;;;37.83;27.57;;;;;;;4.17;76.78;94199.66;5042433;28;20221;-65
2021/12/05 03:31:01;;;;;;;36.33;25.47;;;;;;;4.20;76.16;94195.94;5029390;28;20245;-63
2021/12/05 03:33:27;;;;;;;35.43;25.13;;;;;;;4.15;76.02;94206.75;5039010;28;20249;-65
2021/12/05 03:35:52;;;;;;;35.70;26.27;;;;;;;4.09;76.84;94219.44;5043489;28;20230;-62
2021/12/05 03:38:18;;;;;;;37.17;26.40;;;;;;;4.18;76.47;94211.69;5045012;28;20237;-62
2021/12/05 03:40:44;;;;;;;35.60;25.60;;;;;;;4.34;76.21;94210.34;5045317;28;20292;-64
2021/12/05 03:43:13;;;;;;;35.07;25.50;;;;;;;4.35;76.17;94209.38;5040869;28;20222;-63
2021/12/05 03:45:43;;;;;;;36.10;26.13;;;;;;;4.33;75.77;94201.72;5042839;28;20221;-63
2021/12/05 03:48:11;;;;;;;34.60;24.60;;;;;;;4.25;75.77;94193.78;5043025;28;20225;-66
2021/12/05 03:50:37;;;;;;;33.97;25.70;;;;;;;4.32;76.25;94192.25;5044699;28;20258;-63
2021/12/05 03:53:06;;;;;;;36.40;25.63;;;;;;;4.39;75.96;94197.78;5038696;28;20288;-64
2021/12/05 03:55:32;;;;;;;37.93;25.10;;;;;;;4.34;76.10;94200.75;5037573;28;20225;-64
2021/12/05 03:57:58;;;;;;;32.83;25.87;;;;;;;4.35;76.12;94193.78;5037793;28;20234;-62
2021/12/05 04:00:30;;;;;;;33.00;24.70;;;;;;;4.45;75.65;94199.81;5039736;28;20238;-62
2021/12/05 04:02:59;;;;;;;31.23;24.47;;;;;;;4.41;76.03;94201.03;5038574;28;20234;-65
2021/12/05 04:05:26;;;;;;;35.10;25.13;;;;;;;4.42;75.77;94206.13;5041202;28;20219;-62
2021/12/05 04:07:52;;;;;;;30.50;23.40;;;;;;;4.49;75.75;94205.56;5035981;28;20240;-62
2021/12/05 04:10:18;;;;;;;31.63;24.00;;;;;;;4.59;75.74;94214.22;5036066;28;20246;-62
2021/12/05 04:12:44;;;;;;;32.63;23.60;;;;;;;4.53;75.28;94204.38;5040747;28;20222;-65
2021/12/05 04:15:11;;;;;;;32.47;25.13;;;;;;;4.53;75.48;94206.97;5039585;28;20222;-66
2021/12/05 04:17:39;;;;;;;34.20;24.73;;;;;;;4.49;75.92;94218.59;5037959;28;20222;-63
2021/12/05 04:20:06;;;;;;;31.37;24.63;;;;;;;4.54;75.99;94208.59;5041217;28;20213;-61
2021/12/05 04:22:32;;;;;;;32.43;24.07;;;;;;;4.57;75.93;94209.16;5040026;28;20202;-64
2021/12/05 04:25:01;;;;;;;29.83;23.60;;;;;;;4.46;76.44;94203.25;5034365;28;20238;-63
2021/12/05 04:27:27;;;;;;;33.73;25.27;;;;;;;4.41;76.66;94208.84;5033021;28;20234;-65
2021/12/05 04:29:53;;;;;;;35.10;24.13;;;;;;;4.43;76.98;94210.34;5041509;28;20226;-62
2021/12/05 04:32:19;;;;;;;30.30;23.27;;;;;;;4.52;76.73;94223.56;5034326;28;20295;-62
2021/12/05 04:34:44;;;;;;;32.33;24.40;;;;;;;4.55;76.70;94229.31;5038922;28;20222;-63
2021/12/05 04:37:10;;;;;;;32.17;24.53;;;;;;;4.58;76.46;94225.63;5037431;28;20222;-63
2021/12/05 04:39:37;;;;;;;35.07;24.13;;;;;;;4.57;76.73;94221.34;5029098;28;20222;-66
2021/12/05 04:42:03;;;;;;;30.73;23.37;;;;;;;4.58;76.46;94213.41;5034901;28;20239;-63
2021/12/05 04:44:30;;;;;;;31.50;23.93;;;;;;;4.62;76.54;94224.38;5036339;28;20245;-62
2021/12/05 04:46:57;;;;;;;30.13;23.83;;;;;;;4.57;76.62;94231.75;5031508;28;20324;-62
2021/12/05 04:49:23;;;;;;;28.00;22.47;;;;;;;4.62;76.80;94225.22;5038914;28;20226;-64
2021/12/05 04:51:50;;;;;;;30.83;23.20;;;;;;;4.58;76.43;94231.63;5041589;28;20229;-65
2021/12/05 04:54:17;;;;;;;29.17;23.53;;;;;;;4.56;76.70;94230.94;5041005;28;20227;-64
2021/12/05 04:56:45;;;;;;;29.10;23.70;;;;;;;4.57;76.99;94235.22;5039292;28;20226;-64
2021/12/05 04:59:14;;;;;;;30.27;23.93;;;;;;;4.59;76.95;94224.66;5038801;28;20281;-66
2021/12/05 05:01:42;;;;;;;32.83;23.80;;;;;;;4.59;76.79;94235.06;5033340;28;20214;-65
2021/12/05 05:04:22;;;;;;;29.87;23.33;;;;;;;4.60;76.74;94247.94;5039289;28;20248;-65
2021/12/05 05:06:48;;;;;;;30.57;24.57;;;;;;;4.51;76.68;94253.13;5041101;28;20229;-62
2021/12/05 05:09:13;;;;;;;33.23;24.83;;;;;;;4.55;76.91;94249.31;5037518;28;20252;-66
2021/12/05 05:11:41;;;;;;;32.33;23.83;;;;;;;4.57;76.97;94253.44;5039183;28;20293;-65
2021/12/05 05:14:08;;;;;;;29.53;23.33;;;;;;;4.63;76.76;94259.88;5040884;28;20229;-62
2021/12/05 05:16:35;;;;;;;31.53;24.80;;;;;;;4.65;76.82;94260.56;5034025;28;20206;-65
2021/12/05 05:19:01;;;;;;;33.17;25.10;;;;;;;4.67;76.58;94263.03;5039777;28;20237;-66
2021/12/05 05:29:21;;;;;;;31.13;24.37;;;;;;;4.54;76.50;94253.69;5047319;28;20209;-63
2021/12/05 05:48:13;;;;;;;33.83;24.87;;;;;;;4.54;77.23;94247.66;5040847;28;20296;-63
2021/12/05 05:50:40;;;;;;;33.53;24.83;;;;;;;4.57;76.92;94247.38;5042611;28;20284;-64
2021/12/05 05:53:07;;;;;;;35.33;25.33;;;;;;;4.57;76.78;94252.59;5039771;28;20229;-63
2021/12/05 05:55:34;;;;;;;33.57;25.80;;;;;;;4.58;77.05;94249.88;5045360;28;20257;-64
2021/12/05 06:00:34;;;;;;;31.97;24.27;;;;;;;4.59;77.00;94241.09;5038676;28;20226;-65
2021/12/05 06:03:20;;;;;;;31.57;24.77;;;;;;;4.56;76.85;94240.53;5040175;28;20214;-65
2021/12/05 06:05:50;;;;;;;31.97;25.13;;;;;;;4.61;76.66;94244.38;5041014;28;20226;-63
2021/12/05 06:08:17;;;;;;;32.50;24.83;;;;;;;4.68;76.54;94259.47;5036961;28;20269;-64
2021/12/05 06:10:42;;;;;;;31.90;24.80;;;;;;;4.60;76.43;94253.16;5040013;28;20229;-63
2021/12/05 06:13:08;;;;;;;32.83;25.00;;;;;;;4.54;76.99;94256.28;5042081;28;20214;-63
2021/12/05 06:15:34;;;;;;;33.37;24.73;;;;;;;4.49;77.24;94261.09;5043918;28;20233;-64
2021/12/05 06:17:59;;;;;;;34.80;24.93;;;;;;;4.48;77.34;94259.44;5041485;28;20213;-64
2021/12/05 06:20:27;;;;;;;31.40;23.97;;;;;;;4.43;77.49;94272.00;5041811;28;20221;-63
2021/12/05 06:22:54;;;;;;;35.20;25.77;;;;;;;4.34;77.37;94258.03;5042468;28;20236;-64
2021/12/05 06:25:24;;;;;;;34.60;25.33;;;;;;;4.37;78.08;94278.56;5040698;28;20229;-63
2021/12/05 06:27:58;;;;;;;33.20;25.37;;;;;;;4.42;77.63;94281.63;5037297;28;20227;-63
2021/12/05 06:30:38;;;;;;;33.17;25.43;;;;;;;4.40;77.69;94283.50;5041201;28;20234;-63
2021/12/05 06:38:53;;;;;;;36.00;26.10;;;;;;;4.40;77.49;94287.91;5044881;28;20237;-62
2021/12/05 06:41:33;;;;;;;34.53;24.73;;;;;;;4.61;77.15;94304.28;5044545;28;20301;-61
2021/12/05 06:46:48;;;;;;;36.10;26.03;;;;;;;4.69;77.12;94316.63;5002520;28;20207;-63
2021/12/05 06:49:13;;;;;;;36.93;26.00;;;;;;;4.76;76.91;94327.34;5005293;28;20238;-62
2021/12/05 06:51:39;;;;;;;36.77;26.47;;;;;;;4.78;76.63;94334.03;5003714;28;20295;-63
2021/12/05 06:54:04;;;;;;;31.53;23.03;;;;;;;4.83;76.54;94331.06;4986766;28;20278;-63
2021/12/05 06:56:30;;;;;;;28.90;22.10;;;;;;;4.76;76.44;94333.38;4988157;28;20314;-62
2021/12/05 06:58:55;;;;;;;31.50;23.33;;;;;;;4.75;76.35;94338.72;5005197;28;20227;-63
2021/12/05 07:01:22;;;;;;;31.27;24.27;;;;;;;4.73;76.64;94335.41;4995569;28;20282;-63
2021/12/05 07:03:50;;;;;;;33.10;24.60;;;;;;;4.83;76.25;94346.69;4999891;28;20223;-61
2021/12/05 07:06:26;;;;;;;30.57;23.33;;;;;;;4.79;75.89;94343.53;4991556;28;20250;-61
2021/12/05 07:08:56;;;;;;;30.23;23.00;;;;;;;4.75;76.04;94341.31;5002076;28;20214;-62
2021/12/05 07:11:38;;;;;;;32.77;25.03;;;;;;;4.90;75.75;94331.34;4987379;28;20282;-63
2021/12/05 07:16:48;;;;;;;29.67;22.17;;;;;;;5.12;75.06;94336.31;5004493;28;20217;-62
2021/12/05 07:22:01;;;;;;;26.37;20.37;;;;;;;5.22;74.56;94329.34;5001211;28;20306;-62
2021/12/05 07:24:52;;;;;;;26.60;21.53;;;;;;;5.26;74.33;94328.09;5026441;28;20256;-62
2021/12/05 07:41:54;;;;;;;27.03;19.97;;;;;;;5.78;73.36;94321.78;4963053;28;20324;-62
2021/12/05 07:44:20;;;;;;;24.67;19.60;;;;;;;5.78;73.06;94329.59;4967955;28;20237;-63
2021/12/05 07:46:47;;;;;;;28.57;21.17;;;;;;;5.64;73.26;94323.84;4949180;29;20256;-62
2021/12/05 07:49:14;;;;;;;26.53;20.67;;;;;;;5.58;73.35;94313.94;4965255;28;20240;-62
2021/12/05 07:51:45;;;;;;;25.77;20.20;;;;;;;5.63;73.34;94309.16;4961868;28;20232;-62
2021/12/05 08:16:26;;;;;;;25.40;21.10;;;;;;;6.37;71.42;94321.50;4903555;29;20237;-76
2021/12/05 08:18:51;;;;;;;25.67;20.67;;;;;;;6.51;70.58;94304.53;4901555;29;20266;-73
2021/12/05 08:21:17;;;;;;;27.97;21.50;;;;;;;6.62;70.32;94308.75;4891582;29;20234;-76
2021/12/05 08:23:44;;;;;;;25.13;19.40;;;;;;;6.57;70.09;94319.63;4902194;29;20234;-78
2021/12/05 08:26:16;;;;;;;25.07;20.43;;;;;;;6.66;69.67;94311.91;4899662;29;20282;-78
2021/12/05 09:53:05;;;;;;;20.77;17.43;;;;;;;8.11;63.59;94210.47;5038063;28;20229;-78
2021/12/05 10:03:34;;;;;;;17.77;13.53;;;;;;;8.16;62.81;94193.31;5032007;28;20273;-79
2021/12/05 10:11:30;;;;;;;19.07;15.33;;;;;;;8.62;61.06;94182.50;5044027;28;20198;-77
2021/12/05 10:38:41;;;;;;;16.87;13.60;;;;;;;9.17;59.34;94162.78;4956716;28;20243;-77
2021/12/05 10:43:43;;;;;;;16.13;13.80;;;;;;;9.49;57.94;94157.50;4963833;28;20240;-73
2021/12/05 10:46:11;;;;;;;19.13;13.63;;;;;;;9.48;57.72;94153.22;4946718;29;20229;-74
2021/12/05 10:48:41;;;;;;;16.00;14.10;;;;;;;9.62;57.53;94150.91;4961523;28;20300;-79
2021/12/05 10:51:13;;;;;;;19.03;14.37;;;;;;;9.87;56.99;94141.19;4955247;28;20231;-75
2021/12/05 10:53:49;;;;;;;16.87;11.87;;;;;;;10.03;55.85;94132.44;4980646;28;20444;-77
2021/12/05 10:56:20;;;;;;;13.73;11.70;;;;;;;9.59;56.65;94128.44;5042557;28;20228;-76
2021/12/05 10:58:59;;;;;;;15.47;12.77;;;;;;;9.65;56.84;94126.94;5037275;28;20233;-77
2021/12/05 11:01:28;;;;;;;12.50;11.20;;;;;;;9.80;55.89;94129.69;5035972;28;20225;-75
2021/12/05 11:03:58;;;;;;;14.50;11.60;;;;;;;10.01;55.53;94123.88;5044407;28;20221;-78
2021/12/05 11:06:37;;;;;;;14.57;12.03;;;;;;;10.17;55.27;94115.94;5043648;28;20233;-78
2021/12/05 11:09:32;;;;;;;17.43;12.37;;;;;;;10.17;55.58;94121.19;5030863;28;20213;-78
2021/12/05 11:12:11;;;;;;;17.60;12.40;;;;;;;10.56;54.61;94118.56;5042077;28;20276;-80
2021/12/05 11:14:40;;;;;;;15.13;10.90;;;;;;;10.72;53.43;94114.16;5038893;28;20249;-81
2021/12/05 11:17:10;;;;;;;14.97;12.70;;;;;;;11.10;52.82;94111.63;5038485;28;20212;-81
2021/12/05 11:19:38;;;;;;;14.53;12.30;;;;;;;11.20;52.74;94113.00;5037978;28;20256;-76
2021/12/05 11:22:10;;;;;;;16.00;11.13;;;;;;;11.50;51.81;94096.47;5040115;28;20241;-64
2021/12/05 11:24:44;;;;;;;15.23;10.83;;;;;;;11.68;50.42;94089.00;5045082;28;20226;-67
2021/12/05 11:27:15;;;;;;;15.30;11.43;;;;;;;11.76;50.68;94075.78;5038489;28;20285;-65
2021/12/05 11:29:50;;;;;;;15.53;11.27;;;;;;;12.18;50.24;94074.28;5038355;28;20222;-64
2021/12/05 11:32:27;;;;;;;14.67;10.63;;;;;;;12.25;49.37;94075.19;5037961;28;20285;-65
2021/12/05 11:34:53;;;;;;;14.90;11.27;;;;;;;12.25;49.51;94079.66;5042113;28;20206;-62
2021/12/05 11:37:18;;;;;;;13.73;10.63;;;;;;;12.26;49.55;94071.53;5035094;28;20278;-62
2021/12/05 11:39:46;;;;;;;16.77;12.60;;;;;;;12.13;49.62;94060.84;5041353;28;20233;-63
2021/12/05 11:42:14;;;;;;;15.07;13.13;;;;;;;12.14;49.81;94060.69;5032621;28;20260;-65
2021/12/05 11:44:41;;;;;;;15.47;11.80;;;;;;;12.10;49.71;94048.84;5035698;28;20269;-62
2021/12/05 11:47:15;;;;;;;14.30;11.73;;;;;;;12.24;49.33;94051.66;5041017;28;20265;-62
2021/12/05 11:49:41;;;;;;;12.40;11.20;;;;;;;12.76;47.95;94046.13;5040291;28;20240;-62
2021/12/05 11:52:08;;;;;;;12.57;11.27;;;;;;;13.11;46.86;94043.56;5036639;28;20227;-62
2021/12/05 11:54:50;;;;;;;13.00;11.03;;;;;;;13.07;46.57;94042.34;5041241;28;20349;-63
2021/12/05 11:57:22;;;;;;;12.47;10.17;;;;;;;13.37;46.12;94039.53;5038764;28;20332;-63
2021/12/05 12:00:00;;;;;;;13.23;10.03;;;;;;;13.30;46.55;94038.66;5034287;28;20230;-63
2021/12/05 12:02:36;;;;;;;11.93;8.73;;;;;;;13.34;44.90;94024.06;5030031;28;20218;-63
2021/12/05 12:05:13;;;;;;;10.10;8.17;;;;;;;13.38;45.60;94036.69;5044043;28;20198;-62
2021/12/05 12:07:41;;;;;;;10.43;8.73;;;;;;;13.59;45.19;94030.53;5049473;28;20293;-63
2021/12/05 12:10:36;;;;;;;11.93;9.30;;;;;;;13.43;45.41;94025.56;5042100;28;20225;-62
2021/12/05 12:13:09;;;;;;;13.40;10.37;;;;;;;13.57;45.05;94024.63;5044997;28;20222;-63
2021/12/05 12:15:36;;;;;;;14.87;10.97;;;;;;;13.12;46.36;94026.72;5038631;28;20329;-63
2021/12/05 12:18:25;;;;;;;13.77;12.07;;;;;;;13.23;46.54;94020.94;5032410;28;20222;-63
2021/12/05 12:20:51;;;;;;;13.67;12.27;;;;;;;12.50;47.95;94016.84;5036615;28;20257;-61
2021/12/05 12:23:18;;;;;;;13.93;12.30;;;;;;;13.04;47.15;94018.94;5039966;28;20198;-62
2021/12/05 12:25:48;;;;;;;14.73;12.33;;;;;;;13.51;45.83;94017.47;5034300;28;20194;-63
2021/12/05 12:28:14;;;;;;;13.37;12.00;;;;;;;13.61;45.97;94007.38;5041648;28;20224;-62
2021/12/05 12:30:45;;;;;;;12.60;10.87;;;;;;;13.18;46.05;94010.13;5050641;28;20224;-61
2021/12/05 12:33:15;;;;;;;12.63;10.50;;;;;;;12.92;46.92;94010.75;5041103;28;20213;-61
2021/12/05 12:35:43;;;;;;;11.37;9.97;;;;;;;13.00;46.72;94007.16;5038526;28;20226;-61
2021/12/05 12:38:14;;;;;;;12.57;9.77;;;;;;;13.42;46.10;94000.97;5044017;28;20209;-61
2021/12/05 12:41:18;;;;;;;13.80;9.83;;;;;;;13.37;45.95;93992.81;5041425;28;20228;-63
2021/12/05 12:43:52;;;;;;;12.33;9.50;;;;;;;13.76;45.47;94006.44;4942609;29;20227;-63
2021/12/05 12:46:40;;;;;;;13.57;9.97;;;;;;;14.06;44.64;94006.97;4963924;29;20248;-63
2021/12/05 12:49:14;;;;;;;11.23;9.73;;;;;;;14.03;44.62;93999.44;4961483;28;20224;-63
2021/12/05 12:52:20;;;;;;;11.73;9.23;;;;;;;14.41;43.75;93998.97;4958195;29;20228;-63
2021/12/05 12:54:58;;;;;;;11.57;8.77;;;;;;;14.59;43.43;93990.47;4940122;29;20300;-63
2021/12/05 12:57:28;;;;;;;12.32;9.90;;;;;;;14.86;42.65;93984.19;4940006;29;20242;-64
2021/12/05 12:59:56;;;;;;;11.90;10.30;;;;;;;14.73;42.90;93992.13;4930505;29;20229;-65
2021/12/05 13:02:36;;;;;;;10.00;9.02;;;;;;;14.67;43.49;93980.50;4959274;29;20253;-64
2021/12/05 13:05:22;;;;;;;12.53;9.97;;;;;;;14.63;43.72;93984.56;4929295;29;20217;-63
2021/12/05 13:10:37;;;;;;;12.57;10.25;;;;;;;15.04;43.32;93991.50;4944651;29;20224;-62
2021/12/05 13:13:05;;;;;;;18.40;9.90;;;;;;;15.30;42.84;93995.16;4944845;29;20225;-62
2021/12/05 13:15:39;;;;;;;12.55;10.73;;;;;;;15.87;41.61;93985.69;4958792;29;20282;-63
2021/12/05 13:18:10;;;;;;;11.60;9.85;;;;;;;20.48;32.35;93986.88;4973713;28;20215;-63
2021/12/05 13:20:41;;;;;;;11.80;10.60;;;;;;;21.20;30.04;93980.16;5019237;28;20230;-63
2021/12/05 13:23:08;;;;;;;12.10;10.90;;;;;;;17.23;36.75;93992.44;5017804;28;20207;-63
2021/12/05 13:26:01;;;;;;;12.23;9.90;;;;;;;14.71;42.47;93991.50;5022904;28;20219;-65
2021/12/05 13:28:57;;;;;;;14.93;10.30;;;;;;;13.60;45.66;93981.97;5000574;28;20214;-63
2021/12/05 13:31:28;;;;;;;14.27;11.27;;;;;;;12.91;47.91;93966.91;5017093;28;20213;-63
2021/12/05 13:34:30;;;;;;;11.63;9.90;;;;;;;12.65;49.03;93972.78;5044791;28;20227;-62
2021/12/05 13:37:05;;;;;;;11.77;10.57;;;;;;;12.34;50.07;93976.53;5044697;28;20213;-64
2021/12/05 13:39:49;;;;;;;13.13;10.27;;;;;;;12.00;51.53;93981.66;5040704;28;20228;-62
2021/12/05 13:42:34;;;;;;;15.13;11.07;;;;;;;12.04;51.24;93975.81;5036521;28;20222;-62
2021/12/05 13:45:00;;;;;;;12.23;10.93;;;;;;;11.81;52.14;93973.28;5038344;28;20241;-64
2021/12/05 13:47:49;;;;;;;11.97;10.10;;;;;;;11.91;51.86;93979.13;5045532;28;20221;-62
2021/12/05 13:50:21;;;;;;;11.67;10.43;;;;;;;11.76;52.60;93988.03;5040967;28;20341;-65
2021/12/05 13:52:56;;;;;;;10.80;9.70;;;;;;;11.66;52.48;93991.78;5040378;28;20335;-64
2021/12/05 13:55:44;;;;;;;11.73;10.53;;;;;;;11.40;52.82;93981.69;5042607;28;20228;-64
2021/12/05 13:58:25;;;;;;;12.70;10.93;;;;;;;11.28;53.19;93977.91;5041404;28;20240;-61
2021/12/05 14:00:57;;;;;;;12.90;9.97;;;;;;;11.11;53.65;93986.97;5028948;28;20305;-63
2021/12/05 14:04:00;;;;;;;12.03;10.50;;;;;;;10.94;54.00;93989.75;5034862;28;20229;-62
2021/12/05 14:06:44;;;;;;;12.53;10.40;;;;;;;10.72;54.83;93995.84;5042410;28;20296;-62
2021/12/05 14:09:37;;;;;;;11.43;10.33;;;;;;;10.52;55.46;93998.97;5044089;28;20236;-65
2021/12/05 14:12:27;;;;;;;11.83;10.60;;;;;;;10.31;56.04;93988.28;5039960;28;20272;-62
2021/12/05 14:15:02;;;;;;;16.20;11.10;;;;;;;10.08;56.23;93996.97;5042588;28;20348;-62
2021/12/05 14:17:32;;;;;;;12.17;10.87;;;;;;;10.06;56.52;93983.19;5042860;28;20221;-64
2021/12/05 14:20:05;;;;;;;15.37;11.40;;;;;;;10.07;56.42;93982.19;5041753;28;20200;-62
2021/12/05 14:22:33;;;;;;;14.10;11.47;;;;;;;9.97;56.86;93975.50;5046596;28;20230;-60
2021/12/05 14:25:01;;;;;;;16.27;14.00;;;;;;;9.83;57.44;93964.75;5036894;28;20227;-62
2021/12/05 14:27:31;;;;;;;12.10;10.90;;;;;;;9.81;57.49;93979.88;5042719;28;20233;-62
2021/12/05 14:29:58;;;;;;;13.23;10.80;;;;;;;9.78;57.44;93980.22;5047273;28;20277;-61
2021/12/05 14:32:31;;;;;;;14.23;11.70;;;;;;;9.41;58.48;93975.63;5041286;28;20237;-66
2021/12/05 14:35:03;;;;;;;12.30;11.00;;;;;;;9.53;58.29;93974.28;5043969;28;20225;-63
2021/12/05 14:37:33;;;;;;;12.67;11.30;;;;;;;9.40;58.77;93976.63;5046166;28;20260;-63
2021/12/05 14:40:08;;;;;;;13.30;11.00;;;;;;;9.31;59.41;93988.16;5042473;28;20252;-64
2021/12/05 14:42:38;;;;;;;17.07;15.27;;;;;;;9.13;60.14;93976.06;5041387;28;20217;-66
2021/12/05 14:45:07;;;;;;;16.43;12.03;;;;;;;9.11;60.57;93972.78;5034775;28;20248;-61
2021/12/05 14:47:35;;;;;;;13.97;11.73;;;;;;;8.96;61.17;93972.66;5039128;28;20233;-62
2021/12/05 14:50:20;;;;;;;13.67;12.27;;;;;;;8.98;61.27;93968.06;5039299;28;20244;-62
2021/12/05 14:52:49;;;;;;;13.43;12.13;;;;;;;8.93;61.42;93975.63;5034091;28;20242;-62
2021/12/05 14:55:20;;;;;;;20.30;12.07;;;;;;;8.84;61.44;93982.66;5032114;28;20314;-63
2021/12/05 14:57:58;;;;;;;20.47;14.17;;;;;;;8.84;61.33;94002.81;5043167;28;20222;-62
2021/12/05 15:00:29;;;;;;;15.63;13.10;;;;;;;8.84;61.28;93982.66;5036664;28;20233;-61
2021/12/05 15:03:08;;;;;;;16.00;14.00;;;;;;;8.68;62.04;93992.34;5039447;28;20293;-61
2021/12/05 15:05:36;;;;;;;17.07;15.27;;;;;;;8.57;61.97;93996.13;5041972;28;20218;-64
2021/12/05 15:08:05;;;;;;;15.37;13.77;;;;;;;8.45;62.53;94000.09;5042764;28;20217;-60
2021/12/05 15:10:31;;;;;;;16.73;14.40;;;;;;;8.32;62.33;94003.97;5048660;28;20213;-60
2021/12/05 15:12:57;;;;;;;16.83;14.67;;;;;;;8.03;63.50;93998.38;5041459;28;20219;-64
2021/12/05 15:15:25;;;;;;;16.70;14.50;;;;;;;8.04;63.87;94006.03;5036832;28;20252;-66
2021/12/05 15:17:53;;;;;;;18.17;14.47;;;;;;;8.00;63.79;93999.50;5032788;28;20213;-63
2021/12/05 15:20:23;;;;;;;17.70;14.63;;;;;;;7.70;64.60;93988.66;5035285;28;20302;-61
2021/12/05 15:22:55;;;;;;;17.37;15.53;;;;;;;7.68;64.86;94010.72;5041517;28;20255;-62
2021/12/05 15:25:24;;;;;;;18.07;14.30;;;;;;;7.82;64.30;94001.41;5043413;28;20213;-62
2021/12/05 15:27:50;;;;;;;15.37;13.50;;;;;;;7.90;63.85;94002.25;5042323;28;20222;-62
2021/12/05 15:30:22;;;;;;;15.80;14.17;;;;;;;7.79;64.02;94006.97;5038735;28;20256;-64
2021/12/05 15:33:06;;;;;;;16.13;13.30;;;;;;;7.73;64.52;94003.22;5039660;28;20249;-63
2021/12/05 15:35:32;;;;;;;14.87;13.27;;;;;;;7.66;64.75;94002.19;5039383;28;20234;-65
2021/12/05 15:38:10;;;;;;;18.13;15.13;;;;;;;7.57;64.71;93997.94;5038475;28;20217;-63
2021/12/05 15:40:38;;;;;;;17.30;14.13;;;;;;;7.49;65.17;94004.75;5042843;28;20337;-63
2021/12/05 15:43:17;;;;;;;14.70;13.20;;;;;;;7.50;65.10;94013.41;5039333;28;20309;-66
2021/12/05 15:45:45;;;;;;;15.87;13.00;;;;;;;7.55;64.93;94005.91;5042095;28;20248;-62
2021/12/05 15:48:11;;;;;;;16.73;14.07;;;;;;;7.39;65.21;94000.63;5040509;28;20226;-64
2021/12/05 15:50:39;;;;;;;18.37;14.80;;;;;;;7.51;65.03;94009.81;5043104;28;20236;-62
2021/12/05 15:53:11;;;;;;;18.40;15.57;;;;;;;7.57;64.91;94027.50;5040937;28;20258;-63
2021/12/05 15:55:39;;;;;;;21.70;15.47;;;;;;;7.35;65.32;94028.91;5037768;28;20218;-62
2021/12/05 15:58:19;;;;;;;19.33;15.20;;;;;;;7.29;65.71;94021.66;5031881;28;20221;-62
2021/12/05 16:01:18;;;;;;;21.57;15.97;;;;;;;7.02;66.68;94031.31;5044396;28;20230;-64
2021/12/05 16:03:46;;;;;;;19.27;16.80;;;;;;;7.09;66.68;94051.63;5041068;28;20222;-63
2021/12/05 16:06:14;;;;;;;21.90;17.23;;;;;;;6.91;67.12;94049.88;5036716;28;20232;-64
2021/12/05 16:08:41;;;;;;;19.67;16.57;;;;;;;6.84;67.71;94046.22;5039083;28;20240;-63
2021/12/05 16:11:12;;;;;;;19.87;16.77;;;;;;;6.83;67.58;94053.25;5038920;28;20512;-65
2021/12/05 16:13:41;;;;;;;22.47;16.90;;;;;;;6.84;67.90;94059.28;5040304;28;20221;-64
2021/12/05 16:16:13;;;;;;;20.33;16.33;;;;;;;6.67;68.19;94055.75;5042714;28;20226;-65
2021/12/05 16:18:41;;;;;;;20.77;16.33;;;;;;;6.77;67.85;94047.81;5044649;28;20218;-64
2021/12/05 16:21:19;;;;;;;19.43;16.73;;;;;;;6.76;67.77;94054.84;5042016;28;20217;-64
2021/12/05 16:23:47;;;;;;;18.63;16.30;;;;;;;6.51;68.56;94053.81;5035289;28;20218;-63
2021/12/05 16:26:21;;;;;;;21.33;16.10;;;;;;;6.58;68.45;94054.03;5036702;28;20203;-64
2021/12/05 16:28:51;;;;;;;21.17;17.43;;;;;;;6.67;68.51;94065.38;5044419;28;20279;-63
2021/12/05 16:31:55;;;;;;;20.67;16.27;;;;;;;6.61;68.46;94058.97;5028140;28;20233;-64
2021/12/05 16:34:27;;;;;;;20.90;16.30;;;;;;;6.60;68.34;94052.09;4984969;28;20290;-62
2021/12/05 16:36:56;;;;;;;20.97;16.77;;;;;;;6.50;69.15;94060.03;4987157;28;20322;-64
2021/12/05 16:39:30;;;;;;;22.57;17.07;;;;;;;6.56;68.94;94071.66;4999012;28;20257;-63
2021/12/05 16:41:58;;;;;;;19.77;16.77;;;;;;;6.46;69.24;94050.84;4998702;28;20247;-62
2021/12/05 16:44:27;;;;;;;21.97;16.97;;;;;;;6.51;69.09;94055.63;5001121;28;20238;-62
2021/12/05 16:46:58;;;;;;;23.23;18.07;;;;;;;6.59;68.96;94064.31;4988251;28;20215;-62
2021/12/05 16:49:34;;;;;;;21.27;17.60;;;;;;;6.49;69.17;94055.75;4998432;28;20228;-61
2021/12/05 16:52:06;;;;;;;24.03;17.03;;;;;;;6.47;69.17;94044.66;5003016;28;20241;-62
2021/12/05 16:54:42;;;;;;;22.30;17.50;;;;;;;6.54;69.10;94063.13;4987578;28;20246;-62
2021/12/05 16:57:11;;;;;;;25.43;18.20;;;;;;;6.39;69.31;94049.81;4998058;28;20234;-63
2021/12/05 16:59:36;;;;;;;23.67;19.63;;;;;;;6.43;69.27;94072.03;5000065;28;20289;-63
2021/12/05 17:02:07;;;;;;;25.20;18.70;;;;;;;6.38;69.38;94079.47;4983131;28;20239;-62
2021/12/05 17:04:44;;;;;;;23.07;18.47;;;;;;;6.39;69.92;94070.69;4983594;28;20243;-63
2021/12/05 17:07:13;;;;;;;24.27;18.87;;;;;;;6.39;69.25;94078.53;4977084;28;20224;-63
2021/12/05 17:09:41;;;;;;;23.73;19.33;;;;;;;6.32;69.58;94052.19;5008159;28;20237;-63
2021/12/05 17:12:28;;;;;;;25.53;20.60;;;;;;;6.45;69.16;94070.09;5032398;28;20297;-63
2021/12/05 17:15:33;;;;;;;27.80;20.47;;;;;;;6.26;69.66;94096.34;5038973;28;20233;-62
2021/12/05 17:18:04;;;;;;;23.63;19.50;;;;;;;6.16;70.12;94052.84;5057407;28;20238;-62
2021/12/05 17:20:37;;;;;;;26.97;21.10;;;;;;;6.21;70.23;94082.91;5043068;28;20232;-62